sensor_id;sensor_type;location;lat;lon;timestamp;P1;durP1;ratioP1;P2;durP2;ratioP2
8652;SDS011;4364;52.426;9.424;2024-02-26T00:00:20;10.60;;;8.10;;
8652;SDS011;4364;52.426;9.424;2024-02-26T00:02:46;9.87;;;7.40;;
8652;SDS011;4364;52.426;9.424;2024-02-26T00:05:13;10.17;;;7.63;;
8652;SDS011;4364;52.426;9.424;2024-02-26T00:07:40;12.97;;;7.73;;
8652;SDS011;4364;52.426;9.424;2024-02-26T00:10:07;10.60;;;7.97;;
8652;SDS011;4364;52.426;9.424;2024-02-26T00:12:34;9.83;;;7.40;;
8652;SDS011;4364;52.426;9.424;2024-02-26T00:15:01;11.23;;;7.73;;
8652;SDS011;4364;52.426;9.424;2024-02-26T00:17:27;9.63;;;7.33;;
8652;SDS011;4364;52.426;9.424;2024-02-26T00:19:54;10.20;;;7.63;;
8652;SDS011;4364;52.426;9.424;2024-02-26T00:22:20;10.27;;;7.20;;
8652;SDS011;4364;52.426;9.424;2024-02-26T00:24:48;9.23;;;7.30;;
8652;SDS011;4364;52.426;9.424;2024-02-26T00:27:14;9.70;;;6.93;;
8652;SDS011;4364;52.426;9.424;2024-02-26T00:29:41;10.83;;;7.07;;
8652;SDS011;4364;52.426;9.424;2024-02-26T00:32:08;8.83;;;7.37;;
8652;SDS011;4364;52.426;9.424;2024-02-26T00:34:34;10.63;;;7.07;;
8652;SDS011;4364;52.426;9.424;2024-02-26T00:37:01;10.10;;;7.37;;
8652;SDS011;4364;52.426;9.424;2024-02-26T00:39:27;8.80;;;6.83;;
8652;SDS011;4364;52.426;9.424;2024-02-26T00:41:54;9.63;;;7.07;;
8652;SDS011;4364;52.426;9.424;2024-02-26T00:44:20;8.63;;;6.70;;
8652;SDS011;4364;52.426;9.424;2024-02-26T00:46:47;9.60;;;6.80;;
8652;SDS011;4364;52.426;9.424;2024-02-26T00:49:14;8.47;;;6.13;;
8652;SDS011;4364;52.426;9.424;2024-02-26T00:51:40;10.37;;;7.13;;
8652;SDS011;4364;52.426;9.424;2024-02-26T00:54:07;8.43;;;6.47;;
8652;SDS011;4364;52.426;9.424;2024-02-26T00:56:33;9.40;;;6.80;;
8652;SDS011;4364;52.426;9.424;2024-02-26T00:59:00;8.23;;;6.43;;
8652;SDS011;4364;52.426;9.424;2024-02-26T01:01:27;8.00;;;6.30;;
8652;SDS011;4364;52.426;9.424;2024-02-26T01:03:54;9.63;;;6.50;;
8652;SDS011;4364;52.426;9.424;2024-02-26T01:06:20;8.30;;;6.37;;
8652;SDS011;4364;52.426;9.424;2024-02-26T01:08:48;8.23;;;6.70;;
8652;SDS011;4364;52.426;9.424;2024-02-26T01:11:15;7.03;;;6.00;;
8652;SDS011;4364;52.426;9.424;2024-02-26T01:13:42;7.43;;;5.80;;
8652;SDS011;4364;52.426;9.424;2024-02-26T01:16:08;9.23;;;6.37;;
8652;SDS011;4364;52.426;9.424;2024-02-26T01:18:34;10.27;;;6.50;;
8652;SDS011;4364;52.426;9.424;2024-02-26T01:21:01;7.67;;;6.20;;
8652;SDS011;4364;52.426;9.424;2024-02-26T01:23:28;8.47;;;6.40;;
8652;SDS011;4364;52.426;9.424;2024-02-26T01:25:55;9.87;;;6.17;;
8652;SDS011;4364;52.426;9.424;2024-02-26T01:28:21;9.93;;;7.10;;
8652;SDS011;4364;52.426;9.424;2024-02-26T01:30:47;7.03;;;5.90;;
8652;SDS011;4364;52.426;9.424;2024-02-26T01:33:14;9.10;;;6.37;;
8652;SDS011;4364;52.426;9.424;2024-02-26T01:35:41;8.23;;;6.30;;
8652;SDS011;4364;52.426;9.424;2024-02-26T01:38:08;7.83;;;6.37;;
8652;SDS011;4364;52.426;9.424;2024-02-26T01:40:34;9.17;;;6.50;;
8652;SDS011;4364;52.426;9.424;2024-02-26T01:43:01;9.17;;;5.90;;
8652;SDS011;4364;52.426;9.424;2024-02-26T01:45:28;7.67;;;6.43;;
8652;SDS011;4364;52.426;9.424;2024-02-26T01:47:54;8.17;;;6.20;;
8652;SDS011;4364;52.426;9.424;2024-02-26T01:50:22;7.80;;;6.67;;
8652;SDS011;4364;52.426;9.424;2024-02-26T01:52:50;7.87;;;6.53;;
8652;SDS011;4364;52.426;9.424;2024-02-26T01:55:19;8.60;;;6.50;;
8652;SDS011;4364;52.426;9.424;2024-02-26T01:57:47;8.90;;;7.00;;
8652;SDS011;4364;52.426;9.424;2024-02-26T02:00:15;8.83;;;6.23;;
8652;SDS011;4364;52.426;9.424;2024-02-26T02:02:42;9.50;;;7.30;;
8652;SDS011;4364;52.426;9.424;2024-02-26T02:05:11;8.30;;;6.50;;
8652;SDS011;4364;52.426;9.424;2024-02-26T02:07:41;7.77;;;6.40;;
8652;SDS011;4364;52.426;9.424;2024-02-26T02:10:07;8.10;;;5.87;;
8652;SDS011;4364;52.426;9.424;2024-02-26T02:12:34;8.33;;;5.90;;
8652;SDS011;4364;52.426;9.424;2024-02-26T02:15:02;9.77;;;6.80;;
8652;SDS011;4364;52.426;9.424;2024-02-26T02:17:28;8.20;;;6.00;;
8652;SDS011;4364;52.426;9.424;2024-02-26T02:19:55;7.70;;;5.97;;
8652;SDS011;4364;52.426;9.424;2024-02-26T02:22:22;8.40;;;5.90;;
8652;SDS011;4364;52.426;9.424;2024-02-26T02:24:49;6.90;;;5.43;;
8652;SDS011;4364;52.426;9.424;2024-02-26T02:27:17;6.77;;;5.77;;
8652;SDS011;4364;52.426;9.424;2024-02-26T02:29:44;7.23;;;5.43;;
8652;SDS011;4364;52.426;9.424;2024-02-26T02:32:10;9.60;;;5.80;;
8652;SDS011;4364;52.426;9.424;2024-02-26T02:34:37;8.03;;;5.43;;
8652;SDS011;4364;52.426;9.424;2024-02-26T02:37:04;7.17;;;5.73;;
8652;SDS011;4364;52.426;9.424;2024-02-26T02:39:31;6.50;;;5.33;;
8652;SDS011;4364;52.426;9.424;2024-02-26T02:41:57;9.30;;;5.13;;
8652;SDS011;4364;52.426;9.424;2024-02-26T02:44:24;8.00;;;5.30;;
8652;SDS011;4364;52.426;9.424;2024-02-26T02:46:50;7.60;;;5.07;;
8652;SDS011;4364;52.426;9.424;2024-02-26T02:49:19;6.83;;;5.07;;
8652;SDS011;4364;52.426;9.424;2024-02-26T02:51:45;8.07;;;5.90;;
8652;SDS011;4364;52.426;9.424;2024-02-26T02:54:12;9.77;;;5.93;;
8652;SDS011;4364;52.426;9.424;2024-02-26T02:56:39;8.43;;;5.30;;
8652;SDS011;4364;52.426;9.424;2024-02-26T02:59:05;8.47;;;5.60;;
8652;SDS011;4364;52.426;9.424;2024-02-26T03:01:32;10.30;;;6.00;;
8652;SDS011;4364;52.426;9.424;2024-02-26T03:03:58;8.20;;;5.17;;
8652;SDS011;4364;52.426;9.424;2024-02-26T03:06:25;9.43;;;6.17;;
8652;SDS011;4364;52.426;9.424;2024-02-26T03:08:54;8.47;;;5.97;;
8652;SDS011;4364;52.426;9.424;2024-02-26T03:11:21;8.33;;;5.63;;
8652;SDS011;4364;52.426;9.424;2024-02-26T03:13:47;8.30;;;5.23;;
8652;SDS011;4364;52.426;9.424;2024-02-26T03:16:14;10.10;;;5.30;;
8652;SDS011;4364;52.426;9.424;2024-02-26T03:18:41;9.43;;;5.57;;
8652;SDS011;4364;52.426;9.424;2024-02-26T03:21:07;8.67;;;5.70;;
8652;SDS011;4364;52.426;9.424;2024-02-26T03:23:34;8.47;;;5.30;;
8652;SDS011;4364;52.426;9.424;2024-02-26T03:26:03;8.43;;;5.23;;
8652;SDS011;4364;52.426;9.424;2024-02-26T03:28:30;6.37;;;4.53;;
8652;SDS011;4364;52.426;9.424;2024-02-26T03:30:59;8.47;;;5.07;;
8652;SDS011;4364;52.426;9.424;2024-02-26T03:33:27;8.73;;;5.27;;
8652;SDS011;4364;52.426;9.424;2024-02-26T03:35:53;8.70;;;5.20;;
8652;SDS011;4364;52.426;9.424;2024-02-26T03:38:20;7.23;;;4.77;;
8652;SDS011;4364;52.426;9.424;2024-02-26T03:40:46;7.07;;;4.97;;
8652;SDS011;4364;52.426;9.424;2024-02-26T03:43:13;8.10;;;5.67;;
8652;SDS011;4364;52.426;9.424;2024-02-26T03:45:40;6.63;;;4.70;;
8652;SDS011;4364;52.426;9.424;2024-02-26T03:48:07;8.10;;;5.53;;
8652;SDS011;4364;52.426;9.424;2024-02-26T03:50:34;7.83;;;5.00;;
8652;SDS011;4364;52.426;9.424;2024-02-26T03:53:01;7.23;;;5.13;;
8652;SDS011;4364;52.426;9.424;2024-02-26T03:55:27;7.77;;;4.83;;
8652;SDS011;4364;52.426;9.424;2024-02-26T03:57:54;6.40;;;4.77;;
8652;SDS011;4364;52.426;9.424;2024-02-26T04:00:20;8.07;;;4.97;;
8652;SDS011;4364;52.426;9.424;2024-02-26T04:02:48;6.97;;;4.63;;
8652;SDS011;4364;52.426;9.424;2024-02-26T04:05:15;6.33;;;4.80;;
8652;SDS011;4364;52.426;9.424;2024-02-26T04:07:42;6.03;;;4.57;;
8652;SDS011;4364;52.426;9.424;2024-02-26T04:10:12;6.50;;;4.97;;
8652;SDS011;4364;52.426;9.424;2024-02-26T04:12:39;7.70;;;5.10;;
8652;SDS011;4364;52.426;9.424;2024-02-26T04:15:09;6.83;;;4.97;;
8652;SDS011;4364;52.426;9.424;2024-02-26T04:17:37;6.40;;;5.30;;
8652;SDS011;4364;52.426;9.424;2024-02-26T04:20:05;5.63;;;5.03;;
8652;SDS011;4364;52.426;9.424;2024-02-26T04:22:32;9.57;;;5.20;;
8652;SDS011;4364;52.426;9.424;2024-02-26T04:24:59;7.43;;;4.87;;
8652;SDS011;4364;52.426;9.424;2024-02-26T04:27:25;6.33;;;5.03;;
8652;SDS011;4364;52.426;9.424;2024-02-26T04:29:52;8.37;;;5.03;;
8652;SDS011;4364;52.426;9.424;2024-02-26T04:32:19;6.37;;;4.87;;
8652;SDS011;4364;52.426;9.424;2024-02-26T04:34:46;7.13;;;4.20;;
8652;SDS011;4364;52.426;9.424;2024-02-26T04:37:12;8.27;;;4.80;;
8652;SDS011;4364;52.426;9.424;2024-02-26T04:39:39;7.57;;;5.40;;
8652;SDS011;4364;52.426;9.424;2024-02-26T04:42:05;6.23;;;4.47;;
8652;SDS011;4364;52.426;9.424;2024-02-26T04:44:32;5.93;;;4.40;;
8652;SDS011;4364;52.426;9.424;2024-02-26T04:46:58;6.20;;;4.40;;
8652;SDS011;4364;52.426;9.424;2024-02-26T04:49:25;6.03;;;4.23;;
8652;SDS011;4364;52.426;9.424;2024-02-26T04:51:52;5.17;;;4.37;;
8652;SDS011;4364;52.426;9.424;2024-02-26T04:54:18;5.70;;;4.30;;
8652;SDS011;4364;52.426;9.424;2024-02-26T04:56:45;6.10;;;4.57;;
8652;SDS011;4364;52.426;9.424;2024-02-26T04:59:11;6.90;;;4.37;;
8652;SDS011;4364;52.426;9.424;2024-02-26T05:01:39;6.20;;;3.90;;
8652;SDS011;4364;52.426;9.424;2024-02-26T05:04:05;5.17;;;4.30;;
8652;SDS011;4364;52.426;9.424;2024-02-26T05:06:32;5.13;;;4.13;;
8652;SDS011;4364;52.426;9.424;2024-02-26T05:08:59;5.37;;;4.37;;
8652;SDS011;4364;52.426;9.424;2024-02-26T05:11:25;4.17;;;3.70;;
8652;SDS011;4364;52.426;9.424;2024-02-26T05:13:52;5.40;;;3.97;;
8652;SDS011;4364;52.426;9.424;2024-02-26T05:16:19;5.90;;;4.17;;
8652;SDS011;4364;52.426;9.424;2024-02-26T05:18:47;4.97;;;4.13;;
8652;SDS011;4364;52.426;9.424;2024-02-26T05:21:14;5.90;;;3.80;;
8652;SDS011;4364;52.426;9.424;2024-02-26T05:23:40;4.57;;;4.00;;
8652;SDS011;4364;52.426;9.424;2024-02-26T05:26:09;6.37;;;4.20;;
8652;SDS011;4364;52.426;9.424;2024-02-26T05:28:36;5.37;;;3.93;;
8652;SDS011;4364;52.426;9.424;2024-02-26T05:31:05;5.27;;;3.87;;
8652;SDS011;4364;52.426;9.424;2024-02-26T05:33:32;5.57;;;4.10;;
8652;SDS011;4364;52.426;9.424;2024-02-26T05:35:58;4.77;;;3.63;;
8652;SDS011;4364;52.426;9.424;2024-02-26T05:38:30;4.50;;;3.67;;
8652;SDS011;4364;52.426;9.424;2024-02-26T05:40:58;5.80;;;3.70;;
8652;SDS011;4364;52.426;9.424;2024-02-26T05:43:25;5.07;;;3.90;;
8652;SDS011;4364;52.426;9.424;2024-02-26T05:45:52;5.17;;;4.07;;
8652;SDS011;4364;52.426;9.424;2024-02-26T05:48:19;6.70;;;3.90;;
8652;SDS011;4364;52.426;9.424;2024-02-26T05:50:46;5.83;;;3.53;;
8652;SDS011;4364;52.426;9.424;2024-02-26T05:53:13;4.33;;;3.60;;
8652;SDS011;4364;52.426;9.424;2024-02-26T05:55:40;4.90;;;3.80;;
8652;SDS011;4364;52.426;9.424;2024-02-26T05:58:06;5.33;;;4.00;;
8652;SDS011;4364;52.426;9.424;2024-02-26T06:00:33;5.30;;;4.30;;
8652;SDS011;4364;52.426;9.424;2024-02-26T06:02:59;4.97;;;3.50;;
8652;SDS011;4364;52.426;9.424;2024-02-26T06:05:26;6.67;;;3.80;;
8652;SDS011;4364;52.426;9.424;2024-02-26T06:07:53;5.70;;;4.27;;
8652;SDS011;4364;52.426;9.424;2024-02-26T06:10:20;5.77;;;4.10;;
8652;SDS011;4364;52.426;9.424;2024-02-26T06:12:47;5.50;;;3.60;;
8652;SDS011;4364;52.426;9.424;2024-02-26T06:15:14;6.00;;;4.37;;
8652;SDS011;4364;52.426;9.424;2024-02-26T06:17:41;4.70;;;3.83;;
8652;SDS011;4364;52.426;9.424;2024-02-26T06:20:08;4.90;;;3.83;;
8652;SDS011;4364;52.426;9.424;2024-02-26T06:22:42;4.60;;;3.73;;
8652;SDS011;4364;52.426;9.424;2024-02-26T06:25:09;5.77;;;3.80;;
8652;SDS011;4364;52.426;9.424;2024-02-26T06:27:35;5.73;;;3.90;;
8652;SDS011;4364;52.426;9.424;2024-02-26T06:30:02;4.90;;;4.13;;
8652;SDS011;4364;52.426;9.424;2024-02-26T06:32:29;7.17;;;4.17;;
8652;SDS011;4364;52.426;9.424;2024-02-26T06:34:55;5.67;;;3.77;;
8652;SDS011;4364;52.426;9.424;2024-02-26T06:37:23;7.43;;;3.73;;
8652;SDS011;4364;52.426;9.424;2024-02-26T06:39:49;5.23;;;3.70;;
8652;SDS011;4364;52.426;9.424;2024-02-26T06:42:18;5.37;;;4.17;;
8652;SDS011;4364;52.426;9.424;2024-02-26T06:44:45;6.20;;;3.70;;
8652;SDS011;4364;52.426;9.424;2024-02-26T06:47:11;4.50;;;3.90;;
8652;SDS011;4364;52.426;9.424;2024-02-26T06:49:38;5.93;;;4.13;;
8652;SDS011;4364;52.426;9.424;2024-02-26T06:52:05;6.43;;;3.57;;
8652;SDS011;4364;52.426;9.424;2024-02-26T06:54:32;3.97;;;3.50;;
8652;SDS011;4364;52.426;9.424;2024-02-26T06:56:59;6.63;;;3.73;;
8652;SDS011;4364;52.426;9.424;2024-02-26T06:59:26;5.23;;;3.70;;
8652;SDS011;4364;52.426;9.424;2024-02-26T07:01:53;5.57;;;3.83;;
8652;SDS011;4364;52.426;9.424;2024-02-26T07:04:20;5.87;;;3.90;;
8652;SDS011;4364;52.426;9.424;2024-02-26T07:06:47;6.23;;;3.60;;
8652;SDS011;4364;52.426;9.424;2024-02-26T07:09:14;3.97;;;3.47;;
8652;SDS011;4364;52.426;9.424;2024-02-26T07:11:42;4.13;;;3.70;;
8652;SDS011;4364;52.426;9.424;2024-02-26T07:14:10;4.73;;;3.80;;
8652;SDS011;4364;52.426;9.424;2024-02-26T07:16:37;5.87;;;4.40;;
8652;SDS011;4364;52.426;9.424;2024-02-26T07:19:03;6.43;;;3.67;;
8652;SDS011;4364;52.426;9.424;2024-02-26T07:21:30;4.17;;;3.77;;
8652;SDS011;4364;52.426;9.424;2024-02-26T07:23:57;6.43;;;4.30;;
8652;SDS011;4364;52.426;9.424;2024-02-26T07:26:24;5.80;;;4.20;;
8652;SDS011;4364;52.426;9.424;2024-02-26T07:28:52;4.30;;;3.80;;
8652;SDS011;4364;52.426;9.424;2024-02-26T07:31:18;5.60;;;4.20;;
8652;SDS011;4364;52.426;9.424;2024-02-26T07:33:45;6.73;;;4.27;;
8652;SDS011;4364;52.426;9.424;2024-02-26T07:36:12;5.90;;;4.73;;
8652;SDS011;4364;52.426;9.424;2024-02-26T07:38:39;5.93;;;4.33;;
8652;SDS011;4364;52.426;9.424;2024-02-26T07:41:09;5.17;;;3.70;;
8652;SDS011;4364;52.426;9.424;2024-02-26T07:43:36;5.83;;;4.40;;
8652;SDS011;4364;52.426;9.424;2024-02-26T07:46:02;6.03;;;4.17;;
8652;SDS011;4364;52.426;9.424;2024-02-26T07:48:29;5.80;;;4.20;;
8652;SDS011;4364;52.426;9.424;2024-02-26T07:50:55;6.70;;;4.50;;
8652;SDS011;4364;52.426;9.424;2024-02-26T07:53:22;5.00;;;4.20;;
8652;SDS011;4364;52.426;9.424;2024-02-26T07:55:48;6.63;;;4.30;;
8652;SDS011;4364;52.426;9.424;2024-02-26T07:58:15;5.47;;;4.10;;
8652;SDS011;4364;52.426;9.424;2024-02-26T08:00:42;5.53;;;4.23;;
8652;SDS011;4364;52.426;9.424;2024-02-26T08:03:08;5.90;;;4.40;;
8652;SDS011;4364;52.426;9.424;2024-02-26T08:05:35;5.30;;;4.70;;
8652;SDS011;4364;52.426;9.424;2024-02-26T08:08:02;6.43;;;4.67;;
8652;SDS011;4364;52.426;9.424;2024-02-26T08:10:29;5.67;;;4.03;;
8652;SDS011;4364;52.426;9.424;2024-02-26T08:12:58;5.37;;;4.27;;
8652;SDS011;4364;52.426;9.424;2024-02-26T08:15:31;4.70;;;4.10;;
8652;SDS011;4364;52.426;9.424;2024-02-26T08:18:00;6.30;;;4.60;;
8652;SDS011;4364;52.426;9.424;2024-02-26T08:20:30;6.97;;;4.60;;
8652;SDS011;4364;52.426;9.424;2024-02-26T08:22:57;6.03;;;4.80;;
8652;SDS011;4364;52.426;9.424;2024-02-26T08:25:24;5.40;;;4.37;;
8652;SDS011;4364;52.426;9.424;2024-02-26T08:27:51;8.07;;;4.43;;
8652;SDS011;4364;52.426;9.424;2024-02-26T08:30:17;6.17;;;4.67;;
8652;SDS011;4364;52.426;9.424;2024-02-26T08:32:44;6.23;;;4.20;;
8652;SDS011;4364;52.426;9.424;2024-02-26T08:35:18;5.33;;;4.20;;
8652;SDS011;4364;52.426;9.424;2024-02-26T08:37:46;4.90;;;4.07;;
8652;SDS011;4364;52.426;9.424;2024-02-26T08:40:13;5.50;;;4.23;;
8652;SDS011;4364;52.426;9.424;2024-02-26T08:42:40;4.73;;;4.23;;
8652;SDS011;4364;52.426;9.424;2024-02-26T08:45:07;6.93;;;4.47;;
8652;SDS011;4364;52.426;9.424;2024-02-26T08:47:34;6.50;;;4.20;;
8652;SDS011;4364;52.426;9.424;2024-02-26T08:50:01;5.00;;;4.23;;
8652;SDS011;4364;52.426;9.424;2024-02-26T08:52:28;5.47;;;3.90;;
8652;SDS011;4364;52.426;9.424;2024-02-26T08:54:54;5.43;;;3.87;;
8652;SDS011;4364;52.426;9.424;2024-02-26T08:57:21;4.97;;;3.83;;
8652;SDS011;4364;52.426;9.424;2024-02-26T08:59:47;4.73;;;3.83;;
8652;SDS011;4364;52.426;9.424;2024-02-26T09:02:14;6.90;;;4.20;;
8652;SDS011;4364;52.426;9.424;2024-02-26T09:04:40;4.23;;;3.70;;
8652;SDS011;4364;52.426;9.424;2024-02-26T09:07:07;4.80;;;3.73;;
8652;SDS011;4364;52.426;9.424;2024-02-26T09:09:35;3.70;;;3.37;;
8652;SDS011;4364;52.426;9.424;2024-02-26T09:12:02;3.87;;;3.00;;
8652;SDS011;4364;52.426;9.424;2024-02-26T09:14:29;5.40;;;3.30;;
8652;SDS011;4364;52.426;9.424;2024-02-26T09:16:55;6.47;;;3.67;;
8652;SDS011;4364;52.426;9.424;2024-02-26T09:19:22;3.53;;;3.20;;
8652;SDS011;4364;52.426;9.424;2024-02-26T09:21:50;3.77;;;3.20;;
8652;SDS011;4364;52.426;9.424;2024-02-26T09:24:16;4.37;;;3.27;;
8652;SDS011;4364;52.426;9.424;2024-02-26T09:26:43;4.70;;;3.23;;
8652;SDS011;4364;52.426;9.424;2024-02-26T09:29:12;5.20;;;2.97;;
8652;SDS011;4364;52.426;9.424;2024-02-26T09:31:39;4.17;;;3.60;;
8652;SDS011;4364;52.426;9.424;2024-02-26T09:34:07;3.93;;;3.23;;
8652;SDS011;4364;52.426;9.424;2024-02-26T09:36:34;4.80;;;3.10;;
8652;SDS011;4364;52.426;9.424;2024-02-26T09:39:00;3.53;;;3.20;;
8652;SDS011;4364;52.426;9.424;2024-02-26T09:41:28;5.20;;;3.20;;
8652;SDS011;4364;52.426;9.424;2024-02-26T09:43:58;3.80;;;3.00;;
8652;SDS011;4364;52.426;9.424;2024-02-26T09:46:25;4.47;;;3.37;;
8652;SDS011;4364;52.426;9.424;2024-02-26T09:48:52;3.60;;;3.10;;
8652;SDS011;4364;52.426;9.424;2024-02-26T09:51:20;3.93;;;3.40;;
8652;SDS011;4364;52.426;9.424;2024-02-26T09:53:52;5.67;;;3.53;;
8652;SDS011;4364;52.426;9.424;2024-02-26T09:56:19;3.73;;;3.30;;
8652;SDS011;4364;52.426;9.424;2024-02-26T09:58:47;4.70;;;3.20;;
8652;SDS011;4364;52.426;9.424;2024-02-26T10:01:20;4.83;;;3.20;;
8652;SDS011;4364;52.426;9.424;2024-02-26T10:03:48;3.97;;;3.23;;
8652;SDS011;4364;52.426;9.424;2024-02-26T10:06:22;5.07;;;3.43;;
8652;SDS011;4364;52.426;9.424;2024-02-26T10:08:50;5.00;;;3.20;;
8652;SDS011;4364;52.426;9.424;2024-02-26T10:11:17;3.50;;;3.07;;
8652;SDS011;4364;52.426;9.424;2024-02-26T10:13:44;3.87;;;3.33;;
8652;SDS011;4364;52.426;9.424;2024-02-26T10:16:11;4.30;;;3.07;;
8652;SDS011;4364;52.426;9.424;2024-02-26T10:18:51;5.43;;;3.60;;
8652;SDS011;4364;52.426;9.424;2024-02-26T10:21:25;4.60;;;3.17;;
8652;SDS011;4364;52.426;9.424;2024-02-26T10:23:52;3.97;;;3.27;;
8652;SDS011;4364;52.426;9.424;2024-02-26T10:26:19;3.47;;;3.13;;
8652;SDS011;4364;52.426;9.424;2024-02-26T10:28:46;3.70;;;3.10;;
8652;SDS011;4364;52.426;9.424;2024-02-26T10:31:19;4.47;;;3.50;;
8652;SDS011;4364;52.426;9.424;2024-02-26T10:33:46;4.57;;;3.30;;
8652;SDS011;4364;52.426;9.424;2024-02-26T10:36:13;3.37;;;3.07;;
8652;SDS011;4364;52.426;9.424;2024-02-26T10:38:40;3.57;;;3.17;;
8652;SDS011;4364;52.426;9.424;2024-02-26T10:41:06;4.20;;;3.40;;
8652;SDS011;4364;52.426;9.424;2024-02-26T10:43:39;4.37;;;3.20;;
8652;SDS011;4364;52.426;9.424;2024-02-26T10:46:05;3.90;;;3.40;;
8652;SDS011;4364;52.426;9.424;2024-02-26T10:48:33;4.70;;;3.37;;
8652;SDS011;4364;52.426;9.424;2024-02-26T10:51:00;5.60;;;3.70;;
8652;SDS011;4364;52.426;9.424;2024-02-26T10:53:28;3.90;;;3.00;;
8652;SDS011;4364;52.426;9.424;2024-02-26T10:55:57;3.53;;;3.00;;
8652;SDS011;4364;52.426;9.424;2024-02-26T10:58:27;3.47;;;3.10;;
8652;SDS011;4364;52.426;9.424;2024-02-26T11:00:55;4.67;;;3.50;;
8652;SDS011;4364;52.426;9.424;2024-02-26T11:03:25;3.40;;;3.03;;
8652;SDS011;4364;52.426;9.424;2024-02-26T11:05:52;3.83;;;3.23;;
8652;SDS011;4364;52.426;9.424;2024-02-26T11:08:19;4.10;;;3.20;;
8652;SDS011;4364;52.426;9.424;2024-02-26T11:10:47;4.47;;;3.40;;
8652;SDS011;4364;52.426;9.424;2024-02-26T11:13:15;4.50;;;3.47;;
8652;SDS011;4364;52.426;9.424;2024-02-26T11:15:48;5.23;;;3.20;;
8652;SDS011;4364;52.426;9.424;2024-02-26T11:18:15;4.03;;;3.23;;
8652;SDS011;4364;52.426;9.424;2024-02-26T11:20:45;3.83;;;3.03;;
8652;SDS011;4364;52.426;9.424;2024-02-26T11:23:14;5.27;;;3.27;;
8652;SDS011;4364;52.426;9.424;2024-02-26T11:25:42;4.20;;;3.37;;
8652;SDS011;4364;52.426;9.424;2024-02-26T11:28:10;4.40;;;3.20;;
8652;SDS011;4364;52.426;9.424;2024-02-26T11:30:41;4.43;;;3.33;;
8652;SDS011;4364;52.426;9.424;2024-02-26T11:33:10;4.17;;;3.37;;
8652;SDS011;4364;52.426;9.424;2024-02-26T11:35:39;3.77;;;3.40;;
8652;SDS011;4364;52.426;9.424;2024-02-26T11:38:06;4.23;;;3.30;;
8652;SDS011;4364;52.426;9.424;2024-02-26T11:40:33;3.83;;;2.70;;
8652;SDS011;4364;52.426;9.424;2024-02-26T11:43:07;6.90;;;3.60;;
8652;SDS011;4364;52.426;9.424;2024-02-26T11:48:11;4.17;;;3.30;;
8652;SDS011;4364;52.426;9.424;2024-02-26T11:50:40;3.80;;;3.10;;
8652;SDS011;4364;52.426;9.424;2024-02-26T11:58:46;3.20;;;2.90;;
8652;SDS011;4364;52.426;9.424;2024-02-26T12:04:02;4.20;;;2.80;;
8652;SDS011;4364;52.426;9.424;2024-02-26T12:06:30;4.90;;;3.00;;
8652;SDS011;4364;52.426;9.424;2024-02-26T12:08:57;3.57;;;2.90;;
8652;SDS011;4364;52.426;9.424;2024-02-26T12:11:27;3.60;;;2.83;;
8652;SDS011;4364;52.426;9.424;2024-02-26T12:13:54;3.80;;;3.03;;
8652;SDS011;4364;52.426;9.424;2024-02-26T12:16:37;3.87;;;2.80;;
8652;SDS011;4364;52.426;9.424;2024-02-26T12:19:05;6.33;;;2.90;;
8652;SDS011;4364;52.426;9.424;2024-02-26T12:21:35;3.97;;;2.97;;
8652;SDS011;4364;52.426;9.424;2024-02-26T12:24:12;3.70;;;2.93;;
8652;SDS011;4364;52.426;9.424;2024-02-26T12:26:40;3.87;;;2.90;;
8652;SDS011;4364;52.426;9.424;2024-02-26T12:29:07;3.20;;;2.87;;
8652;SDS011;4364;52.426;9.424;2024-02-26T12:31:34;3.23;;;2.40;;
8652;SDS011;4364;52.426;9.424;2024-02-26T12:34:03;2.80;;;2.30;;
8652;SDS011;4364;52.426;9.424;2024-02-26T12:36:31;4.30;;;2.70;;
8652;SDS011;4364;52.426;9.424;2024-02-26T12:38:58;2.77;;;2.40;;
8652;SDS011;4364;52.426;9.424;2024-02-26T12:41:26;3.33;;;2.40;;
8652;SDS011;4364;52.426;9.424;2024-02-26T12:43:53;3.10;;;2.50;;
8652;SDS011;4364;52.426;9.424;2024-02-26T12:46:20;3.80;;;2.60;;
8652;SDS011;4364;52.426;9.424;2024-02-26T12:48:47;3.00;;;2.23;;
8652;SDS011;4364;52.426;9.424;2024-02-26T12:51:15;2.50;;;2.30;;
8652;SDS011;4364;52.426;9.424;2024-02-26T12:53:44;3.57;;;2.47;;
8652;SDS011;4364;52.426;9.424;2024-02-26T12:56:12;3.30;;;2.33;;
8652;SDS011;4364;52.426;9.424;2024-02-26T12:58:39;4.43;;;2.77;;
8652;SDS011;4364;52.426;9.424;2024-02-26T13:01:07;3.70;;;2.40;;
8652;SDS011;4364;52.426;9.424;2024-02-26T13:03:39;3.23;;;2.30;;
8652;SDS011;4364;52.426;9.424;2024-02-26T13:06:07;3.20;;;2.13;;
8652;SDS011;4364;52.426;9.424;2024-02-26T13:08:35;3.73;;;2.13;;
8652;SDS011;4364;52.426;9.424;2024-02-26T13:11:01;2.40;;;2.00;;
8652;SDS011;4364;52.426;9.424;2024-02-26T13:13:28;2.97;;;2.10;;
8652;SDS011;4364;52.426;9.424;2024-02-26T13:16:28;2.57;;;2.03;;
8652;SDS011;4364;52.426;9.424;2024-02-26T13:18:50;2.13;;;1.90;;
8652;SDS011;4364;52.426;9.424;2024-02-26T13:21:18;3.43;;;2.17;;
8652;SDS011;4364;52.426;9.424;2024-02-26T13:23:48;2.30;;;2.07;;
8652;SDS011;4364;52.426;9.424;2024-02-26T13:26:16;4.17;;;2.13;;
8652;SDS011;4364;52.426;9.424;2024-02-26T13:28:43;2.40;;;1.90;;
8652;SDS011;4364;52.426;9.424;2024-02-26T13:31:09;2.07;;;1.80;;
8652;SDS011;4364;52.426;9.424;2024-02-26T13:33:36;2.77;;;2.07;;
8652;SDS011;4364;52.426;9.424;2024-02-26T13:36:03;2.40;;;1.80;;
8652;SDS011;4364;52.426;9.424;2024-02-26T13:38:30;2.50;;;1.73;;
8652;SDS011;4364;52.426;9.424;2024-02-26T13:40:56;4.20;;;1.90;;
8652;SDS011;4364;52.426;9.424;2024-02-26T13:43:23;2.17;;;1.73;;
8652;SDS011;4364;52.426;9.424;2024-02-26T13:45:49;2.63;;;2.00;;
8652;SDS011;4364;52.426;9.424;2024-02-26T13:48:16;2.00;;;1.70;;
8652;SDS011;4364;52.426;9.424;2024-02-26T13:50:43;3.13;;;2.10;;
8652;SDS011;4364;52.426;9.424;2024-02-26T13:53:12;3.43;;;1.87;;
8652;SDS011;4364;52.426;9.424;2024-02-26T13:55:40;3.97;;;1.87;;
8652;SDS011;4364;52.426;9.424;2024-02-26T13:58:11;1.90;;;1.40;;
8652;SDS011;4364;52.426;9.424;2024-02-26T14:00:38;2.47;;;1.90;;
8652;SDS011;4364;52.426;9.424;2024-02-26T14:03:06;5.07;;;2.00;;
8652;SDS011;4364;52.426;9.424;2024-02-26T14:05:32;2.63;;;1.70;;
8652;SDS011;4364;52.426;9.424;2024-02-26T14:07:59;2.37;;;1.90;;
8652;SDS011;4364;52.426;9.424;2024-02-26T14:10:26;3.63;;;2.00;;
8652;SDS011;4364;52.426;9.424;2024-02-26T14:12:52;1.80;;;1.60;;
8652;SDS011;4364;52.426;9.424;2024-02-26T14:15:19;2.43;;;1.60;;
8652;SDS011;4364;52.426;9.424;2024-02-26T14:17:46;2.43;;;1.50;;
8652;SDS011;4364;52.426;9.424;2024-02-26T14:20:20;2.93;;;1.63;;
8652;SDS011;4364;52.426;9.424;2024-02-26T14:22:47;3.63;;;1.77;;
8652;SDS011;4364;52.426;9.424;2024-02-26T14:25:20;3.23;;;1.63;;
8652;SDS011;4364;52.426;9.424;2024-02-26T14:27:48;2.17;;;1.47;;
8652;SDS011;4364;52.426;9.424;2024-02-26T14:30:15;2.50;;;1.40;;
8652;SDS011;4364;52.426;9.424;2024-02-26T14:32:42;1.70;;;1.60;;
8652;SDS011;4364;52.426;9.424;2024-02-26T14:35:09;2.87;;;1.80;;
8652;SDS011;4364;52.426;9.424;2024-02-26T14:37:42;3.30;;;1.67;;
8652;SDS011;4364;52.426;9.424;2024-02-26T14:40:13;2.63;;;1.80;;
8652;SDS011;4364;52.426;9.424;2024-02-26T14:42:40;2.50;;;1.60;;
8652;SDS011;4364;52.426;9.424;2024-02-26T14:45:07;2.40;;;1.67;;
8652;SDS011;4364;52.426;9.424;2024-02-26T14:47:35;3.43;;;1.67;;
8652;SDS011;4364;52.426;9.424;2024-02-26T14:50:02;1.60;;;1.50;;
8652;SDS011;4364;52.426;9.424;2024-02-26T14:52:29;3.20;;;1.77;;
8652;SDS011;4364;52.426;9.424;2024-02-26T14:54:55;2.57;;;2.10;;
8652;SDS011;4364;52.426;9.424;2024-02-26T14:57:26;2.27;;;1.70;;
8652;SDS011;4364;52.426;9.424;2024-02-26T14:59:53;2.37;;;1.70;;
8652;SDS011;4364;52.426;9.424;2024-02-26T15:02:19;1.97;;;1.73;;
8652;SDS011;4364;52.426;9.424;2024-02-26T15:04:47;2.50;;;1.60;;
8652;SDS011;4364;52.426;9.424;2024-02-26T15:07:14;2.37;;;1.80;;
8652;SDS011;4364;52.426;9.424;2024-02-26T15:09:42;2.57;;;1.83;;
8652;SDS011;4364;52.426;9.424;2024-02-26T15:12:09;2.30;;;1.83;;
8652;SDS011;4364;52.426;9.424;2024-02-26T15:14:36;3.07;;;1.70;;
8652;SDS011;4364;52.426;9.424;2024-02-26T15:17:03;2.70;;;1.87;;
8652;SDS011;4364;52.426;9.424;2024-02-26T15:19:29;1.47;;;1.37;;
8652;SDS011;4364;52.426;9.424;2024-02-26T15:21:56;1.77;;;1.33;;
8652;SDS011;4364;52.426;9.424;2024-02-26T15:24:23;1.87;;;1.60;;
8652;SDS011;4364;52.426;9.424;2024-02-26T15:26:49;1.70;;;1.30;;